sensor_id;sensor_type;location;lat;lon;timestamp;P1;durP1;ratioP1;P2;durP2;ratioP2
60582;SDS011;46415;47.536;19.066;2022-08-21T00:00:35;5.20;;;4.70;;
60582;SDS011;46415;47.536;19.066;2022-08-21T00:03:45;4.68;;;4.25;;
60582;SDS011;46415;47.536;19.066;2022-08-21T00:06:51;4.68;;;4.32;;
60582;SDS011;46415;47.536;19.066;2022-08-21T00:09:55;5.10;;;4.62;;
60582;SDS011;46415;47.536;19.066;2022-08-21T00:12:58;5.40;;;4.87;;
60582;SDS011;46415;47.536;19.066;2022-08-21T00:16:03;4.93;;;4.53;;
60582;SDS011;46415;47.536;19.066;2022-08-21T00:19:06;6.28;;;5.05;;
60582;SDS011;46415;47.536;19.066;2022-08-21T00:22:10;5.18;;;4.78;;
60582;SDS011;46415;47.536;19.066;2022-08-21T00:25:13;5.85;;;5.22;;
60582;SDS011;46415;47.536;19.066;2022-08-21T00:28:17;5.43;;;4.93;;
60582;SDS011;46415;47.536;19.066;2022-08-21T00:31:20;5.25;;;4.85;;
60582;SDS011;46415;47.536;19.066;2022-08-21T00:34:23;5.40;;;4.97;;
60582;SDS011;46415;47.536;19.066;2022-08-21T00:37:25;5.90;;;5.30;;
60582;SDS011;46415;47.536;19.066;2022-08-21T00:40:33;6.20;;;5.60;;
60582;SDS011;46415;47.536;19.066;2022-08-21T00:43:42;6.22;;;5.68;;
60582;SDS011;46415;47.536;19.066;2022-08-21T00:46:45;5.93;;;5.43;;
60582;SDS011;46415;47.536;19.066;2022-08-21T00:49:48;6.97;;;6.37;;
60582;SDS011;46415;47.536;19.066;2022-08-21T00:52:51;6.07;;;5.68;;
60582;SDS011;46415;47.536;19.066;2022-08-21T00:55:54;6.75;;;6.15;;
60582;SDS011;46415;47.536;19.066;2022-08-21T00:58:58;6.55;;;6.05;;
60582;SDS011;46415;47.536;19.066;2022-08-21T01:02:03;6.90;;;6.20;;
60582;SDS011;46415;47.536;19.066;2022-08-21T01:05:07;7.65;;;6.95;;
60582;SDS011;46415;47.536;19.066;2022-08-21T01:08:10;7.20;;;6.55;;
60582;SDS011;46415;47.536;19.066;2022-08-21T01:11:14;6.82;;;6.07;;
60582;SDS011;46415;47.536;19.066;2022-08-21T01:14:20;7.05;;;6.45;;
60582;SDS011;46415;47.536;19.066;2022-08-21T01:17:23;7.47;;;6.78;;
60582;SDS011;46415;47.536;19.066;2022-08-21T01:20:26;7.15;;;6.55;;
60582;SDS011;46415;47.536;19.066;2022-08-21T01:23:35;8.55;;;7.65;;
60582;SDS011;46415;47.536;19.066;2022-08-21T01:26:40;7.72;;;7.07;;
60582;SDS011;46415;47.536;19.066;2022-08-21T01:29:51;7.55;;;6.85;;
60582;SDS011;46415;47.536;19.066;2022-08-21T01:32:54;7.75;;;7.05;;
60582;SDS011;46415;47.536;19.066;2022-08-21T01:35:58;7.93;;;7.22;;
60582;SDS011;46415;47.536;19.066;2022-08-21T01:39:02;8.52;;;7.72;;
60582;SDS011;46415;47.536;19.066;2022-08-21T01:42:06;9.95;;;8.00;;
60582;SDS011;46415;47.536;19.066;2022-08-21T01:45:09;9.38;;;8.05;;
60582;SDS011;46415;47.536;19.066;2022-08-21T01:48:12;8.32;;;7.53;;
60582;SDS011;46415;47.536;19.066;2022-08-21T01:51:15;8.77;;;7.93;;
60582;SDS011;46415;47.536;19.066;2022-08-21T01:54:18;9.00;;;8.05;;
60582;SDS011;46415;47.536;19.066;2022-08-21T01:57:21;8.73;;;7.82;;
60582;SDS011;46415;47.536;19.066;2022-08-21T02:00:27;9.05;;;7.90;;
60582;SDS011;46415;47.536;19.066;2022-08-21T02:03:30;9.18;;;7.60;;
60582;SDS011;46415;47.536;19.066;2022-08-21T02:06:37;10.23;;;8.07;;
60582;SDS011;46415;47.536;19.066;2022-08-21T02:09:41;10.05;;;8.00;;
60582;SDS011;46415;47.536;19.066;2022-08-21T02:12:44;9.63;;;7.70;;
60582;SDS011;46415;47.536;19.066;2022-08-21T02:15:47;10.77;;;8.05;;
60582;SDS011;46415;47.536;19.066;2022-08-21T02:18:50;8.60;;;7.70;;
60582;SDS011;46415;47.536;19.066;2022-08-21T02:21:53;8.18;;;7.37;;
60582;SDS011;46415;47.536;19.066;2022-08-21T02:24:56;9.02;;;7.85;;
60582;SDS011;46415;47.536;19.066;2022-08-21T02:27:59;10.00;;;8.98;;
60582;SDS011;46415;47.536;19.066;2022-08-21T02:34:09;10.20;;;8.40;;
60582;SDS011;46415;47.536;19.066;2022-08-21T02:37:12;9.48;;;8.10;;
60582;SDS011;46415;47.536;19.066;2022-08-21T02:40:15;10.65;;;8.35;;
60582;SDS011;46415;47.536;19.066;2022-08-21T02:43:21;11.35;;;8.32;;
60582;SDS011;46415;47.536;19.066;2022-08-21T02:46:25;9.80;;;8.55;;
60582;SDS011;46415;47.536;19.066;2022-08-21T02:49:28;9.50;;;8.00;;
60582;SDS011;46415;47.536;19.066;2022-08-21T02:52:30;12.37;;;8.85;;
60582;SDS011;46415;47.536;19.066;2022-08-21T02:55:33;10.48;;;8.90;;
60582;SDS011;46415;47.536;19.066;2022-08-21T02:58:46;11.00;;;9.02;;
60582;SDS011;46415;47.536;19.066;2022-08-21T03:01:51;9.82;;;8.20;;
60582;SDS011;46415;47.536;19.066;2022-08-21T03:04:53;9.95;;;8.95;;
60582;SDS011;46415;47.536;19.066;2022-08-21T03:07:56;10.13;;;8.80;;
60582;SDS011;46415;47.536;19.066;2022-08-21T03:11:00;11.23;;;9.45;;
60582;SDS011;46415;47.536;19.066;2022-08-21T03:14:03;9.50;;;8.40;;
60582;SDS011;46415;47.536;19.066;2022-08-21T03:17:07;12.63;;;9.43;;
60582;SDS011;46415;47.536;19.066;2022-08-21T03:20:10;10.05;;;8.90;;
60582;SDS011;46415;47.536;19.066;2022-08-21T03:23:13;10.27;;;9.18;;
60582;SDS011;46415;47.536;19.066;2022-08-21T03:26:20;9.35;;;8.43;;
60582;SDS011;46415;47.536;19.066;2022-08-21T03:29:24;10.23;;;9.20;;
60582;SDS011;46415;47.536;19.066;2022-08-21T03:32:26;11.68;;;9.48;;
60582;SDS011;46415;47.536;19.066;2022-08-21T03:35:29;11.30;;;9.45;;
60582;SDS011;46415;47.536;19.066;2022-08-21T03:38:33;10.80;;;9.70;;
60582;SDS011;46415;47.536;19.066;2022-08-21T03:41:38;11.38;;;9.15;;
60582;SDS011;46415;47.536;19.066;2022-08-21T03:44:41;11.55;;;9.95;;
60582;SDS011;46415;47.536;19.066;2022-08-21T03:47:53;10.60;;;9.50;;
60582;SDS011;46415;47.536;19.066;2022-08-21T03:51:03;10.65;;;9.20;;
60582;SDS011;46415;47.536;19.066;2022-08-21T03:54:06;10.45;;;9.25;;
60582;SDS011;46415;47.536;19.066;2022-08-21T03:57:09;12.48;;;10.50;;
60582;SDS011;46415;47.536;19.066;2022-08-21T04:00:13;10.75;;;9.65;;
60582;SDS011;46415;47.536;19.066;2022-08-21T04:03:17;11.32;;;9.32;;
60582;SDS011;46415;47.536;19.066;2022-08-21T04:06:20;11.00;;;9.63;;
60582;SDS011;46415;47.536;19.066;2022-08-21T04:09:24;12.43;;;10.27;;
60582;SDS011;46415;47.536;19.066;2022-08-21T04:12:27;12.60;;;9.93;;
60582;SDS011;46415;47.536;19.066;2022-08-21T04:15:30;11.88;;;10.52;;
60582;SDS011;46415;47.536;19.066;2022-08-21T04:18:32;11.25;;;10.05;;
60582;SDS011;46415;47.536;19.066;2022-08-21T04:21:36;11.38;;;9.30;;
60582;SDS011;46415;47.536;19.066;2022-08-21T04:24:39;11.50;;;9.90;;
60582;SDS011;46415;47.536;19.066;2022-08-21T04:27:42;10.85;;;9.75;;
60582;SDS011;46415;47.536;19.066;2022-08-21T04:30:45;10.73;;;9.65;;
60582;SDS011;46415;47.536;19.066;2022-08-21T04:33:48;12.10;;;9.63;;
60582;SDS011;46415;47.536;19.066;2022-08-21T04:36:51;12.00;;;10.20;;
60582;SDS011;46415;47.536;19.066;2022-08-21T04:39:53;11.25;;;10.15;;
60582;SDS011;46415;47.536;19.066;2022-08-21T04:43:03;11.43;;;10.23;;
60582;SDS011;46415;47.536;19.066;2022-08-21T04:49:14;11.30;;;10.10;;
60582;SDS011;46415;47.536;19.066;2022-08-21T04:52:19;10.95;;;9.85;;
60582;SDS011;46415;47.536;19.066;2022-08-21T04:55:24;9.45;;;8.55;;
60582;SDS011;46415;47.536;19.066;2022-08-21T04:58:30;9.43;;;8.43;;
60582;SDS011;46415;47.536;19.066;2022-08-21T05:01:35;9.75;;;8.18;;
60582;SDS011;46415;47.536;19.066;2022-08-21T05:04:50;9.80;;;8.50;;
60582;SDS011;46415;47.536;19.066;2022-08-21T05:07:56;11.75;;;8.20;;
60582;SDS011;46415;47.536;19.066;2022-08-21T05:11:02;8.68;;;7.70;;
60582;SDS011;46415;47.536;19.066;2022-08-21T05:14:05;9.85;;;7.47;;
60582;SDS011;46415;47.536;19.066;2022-08-21T05:17:08;7.97;;;7.22;;
60582;SDS011;46415;47.536;19.066;2022-08-21T05:20:12;7.82;;;6.72;;
60582;SDS011;46415;47.536;19.066;2022-08-21T05:23:16;7.30;;;6.68;;
60582;SDS011;46415;47.536;19.066;2022-08-21T05:26:19;7.78;;;6.97;;
60582;SDS011;46415;47.536;19.066;2022-08-21T05:29:21;6.97;;;6.35;;
60582;SDS011;46415;47.536;19.066;2022-08-21T05:32:24;7.93;;;6.20;;
60582;SDS011;46415;47.536;19.066;2022-08-21T05:35:28;7.72;;;6.93;;
60582;SDS011;46415;47.536;19.066;2022-08-21T05:38:32;7.68;;;6.78;;
60582;SDS011;46415;47.536;19.066;2022-08-21T05:41:35;6.93;;;6.28;;
60582;SDS011;46415;47.536;19.066;2022-08-21T05:44:37;6.85;;;6.18;;
60582;SDS011;46415;47.536;19.066;2022-08-21T05:47:40;6.85;;;6.22;;
60582;SDS011;46415;47.536;19.066;2022-08-21T05:50:43;6.37;;;5.78;;
60582;SDS011;46415;47.536;19.066;2022-08-21T05:53:46;6.82;;;6.20;;
60582;SDS011;46415;47.536;19.066;2022-08-21T05:56:49;6.93;;;6.22;;
60582;SDS011;46415;47.536;19.066;2022-08-21T05:59:52;6.05;;;5.55;;
60582;SDS011;46415;47.536;19.066;2022-08-21T06:02:55;6.90;;;6.22;;
60582;SDS011;46415;47.536;19.066;2022-08-21T06:05:58;6.43;;;5.93;;
60582;SDS011;46415;47.536;19.066;2022-08-21T06:09:01;7.82;;;6.05;;
60582;SDS011;46415;47.536;19.066;2022-08-21T06:12:05;6.60;;;6.00;;
60582;SDS011;46415;47.536;19.066;2022-08-21T06:15:08;7.15;;;6.45;;
60582;SDS011;46415;47.536;19.066;2022-08-21T06:18:11;6.57;;;5.87;;
60582;SDS011;46415;47.536;19.066;2022-08-21T06:21:14;6.68;;;5.97;;
60582;SDS011;46415;47.536;19.066;2022-08-21T06:24:17;6.32;;;5.72;;
60582;SDS011;46415;47.536;19.066;2022-08-21T06:27:19;6.37;;;5.78;;
60582;SDS011;46415;47.536;19.066;2022-08-21T06:30:28;6.22;;;5.62;;
60582;SDS011;46415;47.536;19.066;2022-08-21T06:33:30;5.65;;;5.15;;
60582;SDS011;46415;47.536;19.066;2022-08-21T06:36:34;6.32;;;5.53;;
60582;SDS011;46415;47.536;19.066;2022-08-21T06:39:36;6.95;;;6.05;;
60582;SDS011;46415;47.536;19.066;2022-08-21T06:42:46;7.05;;;5.87;;
60582;SDS011;46415;47.536;19.066;2022-08-21T06:45:50;6.53;;;5.82;;
60582;SDS011;46415;47.536;19.066;2022-08-21T06:48:53;6.45;;;5.85;;
60582;SDS011;46415;47.536;19.066;2022-08-21T06:51:56;6.05;;;5.55;;
60582;SDS011;46415;47.536;19.066;2022-08-21T06:54:59;6.15;;;5.55;;
60582;SDS011;46415;47.536;19.066;2022-08-21T06:58:02;6.10;;;5.50;;
60582;SDS011;46415;47.536;19.066;2022-08-21T07:01:06;5.85;;;5.35;;
60582;SDS011;46415;47.536;19.066;2022-08-21T07:04:09;6.60;;;5.35;;
60582;SDS011;46415;47.536;19.066;2022-08-21T07:07:12;5.90;;;5.40;;
60582;SDS011;46415;47.536;19.066;2022-08-21T07:10:15;5.87;;;5.35;;
60582;SDS011;46415;47.536;19.066;2022-08-21T07:13:24;5.50;;;4.85;;
60582;SDS011;46415;47.536;19.066;2022-08-21T07:16:27;6.80;;;5.55;;
60582;SDS011;46415;47.536;19.066;2022-08-21T07:19:29;5.45;;;4.95;;
60582;SDS011;46415;47.536;19.066;2022-08-21T07:22:32;5.40;;;4.90;;
60582;SDS011;46415;47.536;19.066;2022-08-21T07:25:37;5.97;;;5.37;;
60582;SDS011;46415;47.536;19.066;2022-08-21T07:28:40;5.75;;;5.18;;
60582;SDS011;46415;47.536;19.066;2022-08-21T07:31:43;6.25;;;5.53;;
60582;SDS011;46415;47.536;19.066;2022-08-21T07:34:46;5.68;;;5.03;;
60582;SDS011;46415;47.536;19.066;2022-08-21T07:37:49;5.40;;;4.90;;
60582;SDS011;46415;47.536;19.066;2022-08-21T07:40:52;5.45;;;5.05;;
60582;SDS011;46415;47.536;19.066;2022-08-21T07:43:58;5.10;;;4.65;;
60582;SDS011;46415;47.536;19.066;2022-08-21T07:47:01;5.32;;;4.80;;
60582;SDS011;46415;47.536;19.066;2022-08-21T07:50:05;5.53;;;4.85;;
60582;SDS011;46415;47.536;19.066;2022-08-21T07:53:08;7.45;;;5.20;;
60582;SDS011;46415;47.536;19.066;2022-08-21T07:56:11;5.30;;;4.80;;
60582;SDS011;46415;47.536;19.066;2022-08-21T07:59:14;5.25;;;4.75;;
60582;SDS011;46415;47.536;19.066;2022-08-21T08:02:21;7.25;;;4.62;;
60582;SDS011;46415;47.536;19.066;2022-08-21T08:05:28;4.87;;;4.45;;
60582;SDS011;46415;47.536;19.066;2022-08-21T08:08:32;4.90;;;4.50;;
60582;SDS011;46415;47.536;19.066;2022-08-21T08:11:35;5.85;;;4.93;;
60582;SDS011;46415;47.536;19.066;2022-08-21T08:14:41;4.95;;;4.55;;
60582;SDS011;46415;47.536;19.066;2022-08-21T08:17:43;5.70;;;5.20;;
60582;SDS011;46415;47.536;19.066;2022-08-21T08:20:46;5.57;;;5.07;;
60582;SDS011;46415;47.536;19.066;2022-08-21T08:23:49;5.82;;;5.25;;
60582;SDS011;46415;47.536;19.066;2022-08-21T08:26:51;5.90;;;5.28;;
60582;SDS011;46415;47.536;19.066;2022-08-21T08:29:56;6.00;;;5.50;;
60582;SDS011;46415;47.536;19.066;2022-08-21T08:32:59;5.35;;;4.85;;
60582;SDS011;46415;47.536;19.066;2022-08-21T08:36:03;5.68;;;5.18;;
60582;SDS011;46415;47.536;19.066;2022-08-21T08:39:09;5.50;;;5.00;;
60582;SDS011;46415;47.536;19.066;2022-08-21T08:42:13;6.12;;;5.12;;
60582;SDS011;46415;47.536;19.066;2022-08-21T08:45:36;7.10;;;5.22;;
60582;SDS011;46415;47.536;19.066;2022-08-21T08:48:51;5.18;;;4.75;;
60582;SDS011;46415;47.536;19.066;2022-08-21T08:52:00;5.00;;;4.60;;
60582;SDS011;46415;47.536;19.066;2022-08-21T08:55:17;6.15;;;5.55;;
60582;SDS011;46415;47.536;19.066;2022-08-21T09:01:33;5.78;;;5.28;;
60582;SDS011;46415;47.536;19.066;2022-08-21T09:04:40;5.87;;;5.35;;
60582;SDS011;46415;47.536;19.066;2022-08-21T09:07:46;5.68;;;5.07;;
60582;SDS011;46415;47.536;19.066;2022-08-21T09:11:10;6.53;;;5.93;;
60582;SDS011;46415;47.536;19.066;2022-08-21T09:20:56;6.95;;;6.32;;
60582;SDS011;46415;47.536;19.066;2022-08-21T09:24:25;7.97;;;5.80;;
60582;SDS011;46415;47.536;19.066;2022-08-21T09:27:35;7.40;;;5.40;;
60582;SDS011;46415;47.536;19.066;2022-08-21T09:30:38;6.65;;;6.00;;
60582;SDS011;46415;47.536;19.066;2022-08-21T09:33:42;7.18;;;5.93;;
60582;SDS011;46415;47.536;19.066;2022-08-21T09:36:45;6.03;;;5.50;;
60582;SDS011;46415;47.536;19.066;2022-08-21T09:39:51;5.45;;;4.93;;
60582;SDS011;46415;47.536;19.066;2022-08-21T09:42:55;6.82;;;6.10;;
60582;SDS011;46415;47.536;19.066;2022-08-21T09:46:12;5.60;;;5.10;;
60582;SDS011;46415;47.536;19.066;2022-08-21T09:49:27;5.90;;;5.40;;
60582;SDS011;46415;47.536;19.066;2022-08-21T09:52:31;6.45;;;5.85;;
60582;SDS011;46415;47.536;19.066;2022-08-21T09:55:34;5.68;;;5.18;;
60582;SDS011;46415;47.536;19.066;2022-08-21T09:59:00;6.20;;;5.60;;
60582;SDS011;46415;47.536;19.066;2022-08-21T10:05:33;6.93;;;6.22;;
60582;SDS011;46415;47.536;19.066;2022-08-21T10:08:37;6.65;;;5.32;;
60582;SDS011;46415;47.536;19.066;2022-08-21T10:11:44;6.18;;;5.57;;
60582;SDS011;46415;47.536;19.066;2022-08-21T10:18:24;5.65;;;5.10;;
60582;SDS011;46415;47.536;19.066;2022-08-21T10:31:21;5.87;;;5.37;;
60582;SDS011;46415;47.536;19.066;2022-08-21T10:47:42;6.55;;;4.80;;
60582;SDS011;46415;47.536;19.066;2022-08-21T10:50:58;6.18;;;5.57;;
60582;SDS011;46415;47.536;19.066;2022-08-21T10:54:13;5.68;;;5.07;;
60582;SDS011;46415;47.536;19.066;2022-08-21T11:01:00;5.22;;;4.82;;
60582;SDS011;46415;47.536;19.066;2022-08-21T11:04:24;7.12;;;4.95;;
60582;SDS011;46415;47.536;19.066;2022-08-21T11:07:53;5.90;;;4.62;;
60582;SDS011;46415;47.536;19.066;2022-08-21T11:11:01;5.97;;;5.40;;
60582;SDS011;46415;47.536;19.066;2022-08-21T11:17:41;5.25;;;4.85;;
60582;SDS011;46415;47.536;19.066;2022-08-21T11:24:55;4.75;;;4.37;;
60582;SDS011;46415;47.536;19.066;2022-08-21T11:28:11;5.80;;;4.32;;
60582;SDS011;46415;47.536;19.066;2022-08-21T11:45:17;5.07;;;4.57;;
60582;SDS011;46415;47.536;19.066;2022-08-21T11:52:19;5.53;;;5.00;;
60582;SDS011;46415;47.536;19.066;2022-08-21T11:55:46;5.07;;;4.68;;
60582;SDS011;46415;47.536;19.066;2022-08-21T11:59:02;5.25;;;4.75;;
60582;SDS011;46415;47.536;19.066;2022-08-21T12:02:14;5.00;;;4.53;;
60582;SDS011;46415;47.536;19.066;2022-08-21T12:05:44;5.93;;;4.65;;
60582;SDS011;46415;47.536;19.066;2022-08-21T12:08:58;4.87;;;4.47;;
60582;SDS011;46415;47.536;19.066;2022-08-21T12:12:05;5.22;;;4.72;;
60582;SDS011;46415;47.536;19.066;2022-08-21T12:18:24;5.12;;;4.72;;
60582;SDS011;46415;47.536;19.066;2022-08-21T12:21:33;6.03;;;5.43;;
60582;SDS011;46415;47.536;19.066;2022-08-21T12:24:38;5.25;;;4.57;;
60582;SDS011;46415;47.536;19.066;2022-08-21T12:27:47;8.33;;;5.70;;
60582;SDS011;46415;47.536;19.066;2022-08-21T12:30:54;7.25;;;5.70;;
60582;SDS011;46415;47.536;19.066;2022-08-21T12:34:00;5.45;;;4.97;;
60582;SDS011;46415;47.536;19.066;2022-08-21T12:37:13;6.05;;;5.47;;
60582;SDS011;46415;47.536;19.066;2022-08-21T12:43:50;6.82;;;5.70;;
60582;SDS011;46415;47.536;19.066;2022-08-21T12:46:58;8.20;;;5.80;;
60582;SDS011;46415;47.536;19.066;2022-08-21T12:56:27;6.45;;;5.20;;
60582;SDS011;46415;47.536;19.066;2022-08-21T12:59:32;6.07;;;5.37;;
60582;SDS011;46415;47.536;19.066;2022-08-21T13:02:45;6.60;;;5.00;;
60582;SDS011;46415;47.536;19.066;2022-08-21T13:05:50;5.30;;;4.90;;
60582;SDS011;46415;47.536;19.066;2022-08-21T13:08:56;5.47;;;4.60;;
60582;SDS011;46415;47.536;19.066;2022-08-21T13:12:07;5.10;;;4.60;;
60582;SDS011;46415;47.536;19.066;2022-08-21T13:15:11;5.80;;;4.70;;
60582;SDS011;46415;47.536;19.066;2022-08-21T13:18:20;4.95;;;4.50;;
60582;SDS011;46415;47.536;19.066;2022-08-21T13:21:29;5.05;;;4.57;;
60582;SDS011;46415;47.536;19.066;2022-08-21T13:24:35;10.35;;;6.30;;
60582;SDS011;46415;47.536;19.066;2022-08-21T13:27:56;10.10;;;6.00;;
60582;SDS011;46415;47.536;19.066;2022-08-21T13:31:09;9.23;;;6.07;;
60582;SDS011;46415;47.536;19.066;2022-08-21T13:34:15;6.30;;;5.80;;
60582;SDS011;46415;47.536;19.066;2022-08-21T13:37:20;6.90;;;6.20;;
60582;SDS011;46415;47.536;19.066;2022-08-21T13:40:26;6.78;;;6.07;;
60582;SDS011;46415;47.536;19.066;2022-08-21T13:43:34;7.03;;;6.40;;
60582;SDS011;46415;47.536;19.066;2022-08-21T13:46:37;5.93;;;5.40;;
60582;SDS011;46415;47.536;19.066;2022-08-21T13:49:42;5.53;;;5.00;;
60582;SDS011;46415;47.536;19.066;2022-08-21T13:52:53;5.32;;;4.82;;
60582;SDS011;46415;47.536;19.066;2022-08-21T13:56:06;5.05;;;4.65;;
60582;SDS011;46415;47.536;19.066;2022-08-21T13:59:09;5.20;;;4.70;;
60582;SDS011;46415;47.536;19.066;2022-08-21T14:02:13;4.43;;;4.03;;
60582;SDS011;46415;47.536;19.066;2022-08-21T14:05:20;4.20;;;3.85;;
60582;SDS011;46415;47.536;19.066;2022-08-21T14:08:36;4.60;;;4.07;;
60582;SDS011;46415;47.536;19.066;2022-08-21T14:11:42;4.35;;;3.95;;
60582;SDS011;46415;47.536;19.066;2022-08-21T14:14:45;4.75;;;4.40;;
60582;SDS011;46415;47.536;19.066;2022-08-21T14:17:48;4.05;;;3.75;;
60582;SDS011;46415;47.536;19.066;2022-08-21T14:20:51;4.32;;;3.92;;
60582;SDS011;46415;47.536;19.066;2022-08-21T14:27:06;4.10;;;3.70;;
60582;SDS011;46415;47.536;19.066;2022-08-21T14:30:17;5.03;;;4.10;;
60582;SDS011;46415;47.536;19.066;2022-08-21T14:33:26;3.85;;;3.55;;
60582;SDS011;46415;47.536;19.066;2022-08-21T14:36:31;3.33;;;3.08;;
60582;SDS011;46415;47.536;19.066;2022-08-21T14:39:34;3.30;;;3.00;;
60582;SDS011;46415;47.536;19.066;2022-08-21T14:42:37;3.37;;;3.08;;
60582;SDS011;46415;47.536;19.066;2022-08-21T14:45:40;3.75;;;2.83;;
60582;SDS011;46415;47.536;19.066;2022-08-21T14:48:43;2.70;;;2.50;;
60582;SDS011;46415;47.536;19.066;2022-08-21T14:51:46;4.37;;;2.87;;
60582;SDS011;46415;47.536;19.066;2022-08-21T14:54:56;2.97;;;2.65;;
60582;SDS011;46415;47.536;19.066;2022-08-21T14:57:58;2.70;;;2.53;;
60582;SDS011;46415;47.536;19.066;2022-08-21T15:01:03;2.85;;;2.65;;
60582;SDS011;46415;47.536;19.066;2022-08-21T15:04:08;2.70;;;2.58;;
60582;SDS011;46415;47.536;19.066;2022-08-21T15:07:10;2.50;;;2.30;;
60582;SDS011;46415;47.536;19.066;2022-08-21T15:10:13;3.78;;;2.42;;
60582;SDS011;46415;47.536;19.066;2022-08-21T15:13:16;2.95;;;2.50;;
60582;SDS011;46415;47.536;19.066;2022-08-21T15:16:19;3.15;;;2.45;;
60582;SDS011;46415;47.536;19.066;2022-08-21T15:19:22;2.45;;;2.35;;
60582;SDS011;46415;47.536;19.066;2022-08-21T15:22:25;2.58;;;2.30;;
60582;SDS011;46415;47.536;19.066;2022-08-21T15:25:29;2.17;;;2.08;;
60582;SDS011;46415;47.536;19.066;2022-08-21T15:28:33;2.20;;;2.10;;
60582;SDS011;46415;47.536;19.066;2022-08-21T15:31:36;2.80;;;2.60;;
60582;SDS011;46415;47.536;19.066;2022-08-21T15:34:53;2.47;;;2.28;;
60582;SDS011;46415;47.536;19.066;2022-08-21T15:37:57;3.15;;;2.35;;
60582;SDS011;46415;47.536;19.066;2022-08-21T15:41:01;2.35;;;2.17;;
60582;SDS011;46415;47.536;19.066;2022-08-21T15:44:05;2.47;;;1.90;;
60582;SDS011;46415;47.536;19.066;2022-08-21T15:47:19;2.28;;;2.17;;
60582;SDS011;46415;47.536;19.066;2022-08-21T15:50:25;2.35;;;2.22;;
60582;SDS011;46415;47.536;19.066;2022-08-21T15:53:28;2.10;;;1.95;;
60582;SDS011;46415;47.536;19.066;2022-08-21T15:56:36;2.58;;;2.37;;
60582;SDS011;46415;47.536;19.066;2022-08-21T15:59:43;2.60;;;2.37;;
60582;SDS011;46415;47.536;19.066;2022-08-21T16:02:53;2.33;;;2.12;;
60582;SDS011;46415;47.536;19.066;2022-08-21T16:05:58;2.40;;;2.20;;
60582;SDS011;46415;47.536;19.066;2022-08-21T16:09:01;2.15;;;1.95;;
60582;SDS011;46415;47.536;19.066;2022-08-21T16:12:05;2.50;;;2.30;;
60582;SDS011;46415;47.536;19.066;2022-08-21T16:15:08;2.55;;;2.35;;
60582;SDS011;46415;47.536;19.066;2022-08-21T16:18:22;2.50;;;2.30;;
60582;SDS011;46415;47.536;19.066;2022-08-21T16:21:25;2.50;;;2.30;;
60582;SDS011;46415;47.536;19.066;2022-08-21T16:24:28;4.60;;;2.72;;
60582;SDS011;46415;47.536;19.066;2022-08-21T16:27:30;3.08;;;2.58;;
60582;SDS011;46415;47.536;19.066;2022-08-21T16:30:36;3.12;;;2.90;;
60582;SDS011;46415;47.536;19.066;2022-08-21T16:33:40;4.57;;;2.70;;
60582;SDS011;46415;47.536;19.066;2022-08-21T16:36:46;5.47;;;2.67;;
60582;SDS011;46415;47.536;19.066;2022-08-21T16:39:49;3.30;;;2.65;;
60582;SDS011;46415;47.536;19.066;2022-08-21T16:42:54;3.08;;;2.87;;
60582;SDS011;46415;47.536;19.066;2022-08-21T16:45:58;3.45;;;3.08;;
60582;SDS011;46415;47.536;19.066;2022-08-21T16:49:02;3.45;;;3.15;;
60582;SDS011;46415;47.536;19.066;2022-08-21T16:52:05;3.97;;;3.53;;
60582;SDS011;46415;47.536;19.066;2022-08-21T16:55:08;3.78;;;3.47;;
60582;SDS011;46415;47.536;19.066;2022-08-21T16:58:16;4.50;;;4.10;;
60582;SDS011;46415;47.536;19.066;2022-08-21T17:01:29;7.55;;;4.53;;
60582;SDS011;46415;47.536;19.066;2022-08-21T17:04:34;6.12;;;4.60;;
60582;SDS011;46415;47.536;19.066;2022-08-21T17:07:37;4.93;;;3.95;;
60582;SDS011;46415;47.536;19.066;2022-08-21T17:10:44;4.68;;;4.28;;
60582;SDS011;46415;47.536;19.066;2022-08-21T17:13:49;5.35;;;4.12;;
60582;SDS011;46415;47.536;19.066;2022-08-21T17:16:53;5.18;;;3.92;;
60582;SDS011;46415;47.536;19.066;2022-08-21T17:19:57;6.28;;;4.25;;
60582;SDS011;46415;47.536;19.066;2022-08-21T17:23:00;4.60;;;4.18;;
60582;SDS011;46415;47.536;19.066;2022-08-21T17:26:03;6.30;;;4.20;;
60582;SDS011;46415;47.536;19.066;2022-08-21T17:29:06;4.65;;;4.15;;
60582;SDS011;46415;47.536;19.066;2022-08-21T17:32:11;5.32;;;4.12;;
60582;SDS011;46415;47.536;19.066;2022-08-21T17:35:15;5.90;;;4.40;;
60582;SDS011;46415;47.536;19.066;2022-08-21T17:38:19;4.30;;;3.90;;
60582;SDS011;46415;47.536;19.066;2022-08-21T17:41:22;3.50;;;3.20;;
60582;SDS011;46415;47.536;19.066;2022-08-21T17:44:26;4.47;;;3.70;;
60582;SDS011;46415;47.536;19.066;2022-08-21T17:47:28;3.80;;;3.50;;
60582;SDS011;46415;47.536;19.066;2022-08-21T17:50:31;4.78;;;4.15;;
60582;SDS011;46415;47.536;19.066;2022-08-21T17:53:35;5.07;;;4.55;;
60582;SDS011;46415;47.536;19.066;2022-08-21T17:56:38;4.55;;;4.15;;
60582;SDS011;46415;47.536;19.066;2022-08-21T17:59:42;5.00;;;4.60;;
60582;SDS011;46415;47.536;19.066;2022-08-21T18:02:46;4.75;;;4.20;;
60582;SDS011;46415;47.536;19.066;2022-08-21T18:05:52;5.03;;;3.97;;
60582;SDS011;46415;47.536;19.066;2022-08-21T18:08:58;4.50;;;4.10;;
60582;SDS011;46415;47.536;19.066;2022-08-21T18:12:01;3.55;;;3.25;;
60582;SDS011;46415;47.536;19.066;2022-08-21T18:15:04;3.85;;;3.45;;
60582;SDS011;46415;47.536;19.066;2022-08-21T18:18:09;3.87;;;3.45;;
60582;SDS011;46415;47.536;19.066;2022-08-21T18:21:12;3.75;;;2.90;;
60582;SDS011;46415;47.536;19.066;2022-08-21T18:24:15;3.50;;;3.20;;
60582;SDS011;46415;47.536;19.066;2022-08-21T18:27:18;3.80;;;3.50;;
60582;SDS011;46415;47.536;19.066;2022-08-21T18:30:23;3.28;;;2.97;;
60582;SDS011;46415;47.536;19.066;2022-08-21T18:33:46;3.45;;;3.25;;
60582;SDS011;46415;47.536;19.066;2022-08-21T18:37:20;3.78;;;3.08;;
60582;SDS011;46415;47.536;19.066;2022-08-21T18:40:43;3.53;;;3.22;;
60582;SDS011;46415;47.536;19.066;2022-08-21T18:44:12;3.05;;;2.85;;
60582;SDS011;46415;47.536;19.066;2022-08-21T18:47:39;3.20;;;2.90;;
60582;SDS011;46415;47.536;19.066;2022-08-21T18:50:49;3.15;;;2.95;;
60582;SDS011;46415;47.536;19.066;2022-08-21T18:53:51;3.37;;;2.80;;
60582;SDS011;46415;47.536;19.066;2022-08-21T18:56:57;3.17;;;2.97;;
60582;SDS011;46415;47.536;19.066;2022-08-21T18:59:59;3.17;;;2.87;;
60582;SDS011;46415;47.536;19.066;2022-08-21T19:03:13;3.25;;;3.03;;
60582;SDS011;46415;47.536;19.066;2022-08-21T19:06:23;2.95;;;2.85;;
60582;SDS011;46415;47.536;19.066;2022-08-21T19:09:26;3.80;;;3.50;;
60582;SDS011;46415;47.536;19.066;2022-08-21T19:12:30;3.67;;;3.47;;
60582;SDS011;46415;47.536;19.066;2022-08-21T19:15:34;4.18;;;3.72;;
60582;SDS011;46415;47.536;19.066;2022-08-21T19:18:39;4.05;;;3.75;;
60582;SDS011;46415;47.536;19.066;2022-08-21T19:21:43;4.43;;;4.03;;
60582;SDS011;46415;47.536;19.066;2022-08-21T19:24:50;4.18;;;3.97;;
60582;SDS011;46415;47.536;19.066;2022-08-21T19:27:53;4.20;;;3.90;;
60582;SDS011;46415;47.536;19.066;2022-08-21T19:30:58;4.15;;;3.85;;
60582;SDS011;46415;47.536;19.066;2022-08-21T19:34:08;4.30;;;4.00;;
60582;SDS011;46415;47.536;19.066;2022-08-21T19:37:17;4.20;;;3.90;;
60582;SDS011;46415;47.536;19.066;2022-08-21T19:40:21;4.07;;;3.78;;
60582;SDS011;46415;47.536;19.066;2022-08-21T19:43:24;3.30;;;3.10;;
60582;SDS011;46415;47.536;19.066;2022-08-21T19:46:32;2.67;;;2.47;;
60582;SDS011;46415;47.536;19.066;2022-08-21T19:49:38;2.90;;;2.62;;
60582;SDS011;46415;47.536;19.066;2022-08-21T19:52:50;2.20;;;2.10;;